Time;durP1;ratioP1;P1;durP2;ratioP2;P2;SDS_P1;SDS_P2;PMS_P1;PMS_P2;Temp;Humidity;BMP_temperature;BMP_pressure;BME280_temperature;BME280_humidity;BME280_pressure;Samples;Min_cycle;Max_cycle;Signal;HPM_P1;HPM_P2
2020/12/11 00:02:01;;;;;;;27.85;17.27;;;;;;;-0.09;91.42;98160.97;5053234;28;20221;-66
2020/12/11 00:04:28;;;;;;;31.17;19.35;;;;;;;-0.08;91.58;98154.75;5053652;28;20197;-65
2020/12/11 00:06:56;;;;;;;24.67;16.25;;;;;;;0.01;91.78;98148.25;5067132;28;20646;-66
2020/12/11 00:09:23;;;;;;;26.80;16.95;;;;;;;0.04;91.76;98124.31;5073610;28;20283;-66
2020/12/11 00:11:49;;;;;;;27.25;16.85;;;;;;;0.08;91.01;98117.97;5073039;28;20216;-65
2020/12/11 00:14:16;;;;;;;22.95;15.73;;;;;;;0.06;90.93;98122.47;5073577;28;20626;-66
2020/12/11 00:16:42;;;;;;;28.45;15.73;;;;;;;-0.07;90.98;98110.63;5080216;28;20660;-67
2020/12/11 00:19:08;;;;;;;23.38;16.38;;;;;;;-0.10;91.06;98106.31;5093263;28;20196;-66
2020/12/11 00:21:39;;;;;;;24.33;15.75;;;;;;;-0.15;91.12;98099.50;5077420;28;20231;-66
2020/12/11 00:24:05;;;;;;;22.50;15.05;;;;;;;-0.19;91.76;98090.81;5072982;28;20185;-66
2020/12/11 00:26:31;;;;;;;27.95;16.48;;;;;;;-0.21;91.92;98101.44;5072898;28;20239;-66
2020/12/11 00:28:58;;;;;;;26.92;15.57;;;;;;;-0.20;91.84;98099.69;5074041;28;20197;-65
2020/12/11 00:31:25;;;;;;;24.55;16.00;;;;;;;-0.18;91.69;98092.53;5072687;28;20259;-66
2020/12/11 00:33:51;;;;;;;29.52;16.75;;;;;;;-0.13;91.86;98100.31;5073196;28;20216;-65
2020/12/11 00:36:17;;;;;;;23.27;14.82;;;;;;;-0.06;91.86;98099.13;5072826;28;20208;-65
2020/12/11 00:38:45;;;;;;;23.50;15.45;;;;;;;0.02;91.98;98102.31;5072974;28;20226;-66
2020/12/11 00:41:11;;;;;;;23.75;16.10;;;;;;;0.06;91.54;98101.28;5072466;28;20205;-65
2020/12/11 00:43:38;;;;;;;25.30;15.68;;;;;;;0.13;91.26;98102.75;5073152;28;20287;-65
2020/12/11 00:46:05;;;;;;;23.17;16.27;;;;;;;0.10;90.36;98096.75;5072960;28;20196;-66
2020/12/11 00:48:32;;;;;;;23.67;16.08;;;;;;;-0.02;90.19;98098.09;5072778;28;20629;-66
2020/12/11 00:50:58;;;;;;;25.90;17.70;;;;;;;-0.15;90.77;98096.84;5072561;28;20263;-65
2020/12/11 00:53:25;;;;;;;30.33;18.70;;;;;;;-0.14;90.98;98093.28;5071877;28;20653;-65
2020/12/11 00:55:53;;;;;;;32.72;19.15;;;;;;;-0.23;91.04;98091.84;5072556;28;20280;-65
2020/12/11 00:58:19;;;;;;;27.80;18.73;;;;;;;-0.19;91.15;98088.16;5072820;28;20202;-64
2020/12/11 01:00:46;;;;;;;27.90;19.05;;;;;;;-0.29;91.95;98086.81;5072319;28;20196;-65
2020/12/11 01:03:13;;;;;;;31.55;19.42;;;;;;;-0.31;92.24;98076.28;5078808;28;20230;-65
2020/12/11 01:05:39;;;;;;;36.10;19.05;;;;;;;-0.26;92.24;98066.38;5092935;28;20200;-65
2020/12/11 01:08:06;;;;;;;28.42;17.98;;;;;;;-0.17;92.40;98069.59;5092450;28;20199;-66
2020/12/11 01:10:32;;;;;;;25.08;17.63;;;;;;;-0.06;92.16;98072.69;5092305;28;20196;-65
2020/12/11 01:13:00;;;;;;;26.30;17.92;;;;;;;0.08;91.80;98062.38;5078672;28;20562;-66
2020/12/11 01:15:27;;;;;;;29.40;18.08;;;;;;;0.13;90.83;98056.91;5072291;28;20185;-65
2020/12/11 01:17:53;;;;;;;24.50;16.95;;;;;;;0.08;90.91;98051.81;5084212;28;20203;-65
2020/12/11 01:20:19;;;;;;;24.08;16.38;;;;;;;0.00;91.20;98043.34;5092812;28;20271;-65
2020/12/11 01:22:45;;;;;;;25.00;17.48;;;;;;;0.17;91.15;98048.78;5092563;28;20232;-66
2020/12/11 01:25:11;;;;;;;25.80;17.42;;;;;;;0.20;90.91;98058.38;5092253;28;20286;-65
2020/12/11 01:27:38;;;;;;;28.98;17.75;;;;;;;0.02;90.68;98052.03;5092273;28;20196;-65
2020/12/11 01:30:05;;;;;;;26.60;17.33;;;;;;;0.00;90.83;98051.28;5092280;28;20210;-65
2020/12/11 01:32:32;;;;;;;28.52;17.67;;;;;;;-0.03;90.74;98046.09;5081815;28;20216;-65
2020/12/11 01:34:58;;;;;;;28.83;18.30;;;;;;;-0.14;91.32;98043.00;5071827;28;20191;-65
2020/12/11 01:37:25;;;;;;;29.70;18.05;;;;;;;-0.18;91.98;98038.75;5072278;28;20272;-65
2020/12/11 01:39:51;;;;;;;31.55;19.08;;;;;;;-0.12;91.93;98025.28;5072116;28;20204;-65
2020/12/11 01:42:18;;;;;;;26.38;17.58;;;;;;;-0.09;92.34;98019.88;5073134;28;20185;-66
2020/12/11 01:44:48;;;;;;;25.35;17.30;;;;;;;-0.06;92.41;98019.75;5072568;28;20188;-66
2020/12/11 01:47:15;;;;;;;26.67;17.27;;;;;;;-0.06;92.47;98011.81;5071793;28;20211;-66
2020/12/11 01:49:42;;;;;;;30.90;17.77;;;;;;;-0.01;92.59;97999.25;5071950;28;20185;-65
2020/12/11 01:52:09;;;;;;;25.95;17.65;;;;;;;0.09;92.25;97992.69;5071591;28;20207;-66
2020/12/11 01:54:35;;;;;;;28.05;18.00;;;;;;;0.10;91.79;97997.03;5071729;28;20232;-65
2020/12/11 01:57:05;;;;;;;26.58;17.00;;;;;;;0.11;91.85;98004.03;5071758;28;20258;-65
2020/12/11 01:59:36;;;;;;;27.13;18.45;;;;;;;0.06;91.48;97995.44;5071783;28;20820;-65
2020/12/11 02:02:04;;;;;;;28.83;18.13;;;;;;;0.09;91.40;98000.63;5071836;28;20180;-65
2020/12/11 02:04:34;;;;;;;26.77;18.95;;;;;;;0.03;91.41;97992.94;5071739;28;20188;-66
2020/12/11 02:07:00;;;;;;;25.00;17.10;;;;;;;0.03;91.67;97998.22;5075648;28;20222;-65
2020/12/11 02:09:27;;;;;;;23.90;17.60;;;;;;;-0.05;91.81;97985.28;5075604;28;20219;-65
2020/12/11 02:11:54;;;;;;;29.67;17.48;;;;;;;-0.02;92.07;97986.97;5075826;28;20659;-66
2020/12/11 02:14:20;;;;;;;26.25;17.48;;;;;;;-0.02;92.28;97984.31;5075608;28;20231;-66
2020/12/11 02:16:46;;;;;;;27.88;18.33;;;;;;;-0.02;91.99;97979.03;5075975;28;20195;-65
2020/12/11 02:19:14;;;;;;;31.58;19.70;;;;;;;-0.02;92.35;97976.38;5075829;28;20646;-65
2020/12/11 02:21:41;;;;;;;29.35;17.15;;;;;;;0.12;92.35;97960.78;5075959;28;20700;-65
2020/12/11 02:24:07;;;;;;;28.38;18.25;;;;;;;0.10;91.88;97949.41;5075734;28;20227;-65
2020/12/11 02:26:33;;;;;;;25.02;17.42;;;;;;;0.12;92.02;97952.00;5075945;28;20618;-65
2020/12/11 02:28:59;;;;;;;25.73;17.05;;;;;;;0.18;91.84;97943.75;5075680;28;20661;-65
2020/12/11 02:31:25;;;;;;;27.00;17.70;;;;;;;0.14;91.66;97939.56;5075337;28;20295;-65
2020/12/11 02:33:52;;;;;;;25.02;17.23;;;;;;;0.11;92.32;97937.03;5075053;28;20211;-65
2020/12/11 02:36:21;;;;;;;31.30;17.08;;;;;;;0.19;92.08;97922.53;5089969;28;20200;-66
2020/12/11 02:38:49;;;;;;;25.73;18.50;;;;;;;0.22;91.77;97925.97;5082945;28;20227;-65
2020/12/11 02:41:16;;;;;;;30.88;16.98;;;;;;;0.28;91.09;97923.06;5075247;28;20189;-65
2020/12/11 02:43:42;;;;;;;26.25;16.33;;;;;;;0.31;90.65;97921.13;5075125;28;20207;-66
2020/12/11 02:46:08;;;;;;;28.38;18.88;;;;;;;0.34;90.67;97921.03;5074850;28;20193;-66
2020/12/11 02:48:35;;;;;;;26.58;17.08;;;;;;;0.40;90.62;97914.59;5075328;28;20201;-66
2020/12/11 02:51:01;;;;;;;25.23;17.20;;;;;;;0.48;90.29;97898.38;5074941;28;20295;-66
2020/12/11 02:53:27;;;;;;;25.15;17.05;;;;;;;0.49;89.90;97900.09;5074387;28;20185;-66
2020/12/11 02:55:57;;;;;;;26.38;17.83;;;;;;;0.54;89.94;97896.31;5075253;28;20508;-67
2020/12/11 02:58:24;;;;;;;28.70;17.45;;;;;;;0.54;89.59;97885.72;5075179;28;20652;-65
2020/12/11 03:00:50;;;;;;;27.98;16.13;;;;;;;0.56;89.62;97885.63;5073708;28;20276;-66
2020/12/11 03:03:16;;;;;;;23.95;17.48;;;;;;;0.69;89.59;97876.22;5073583;28;20276;-66
2020/12/11 03:05:42;;;;;;;26.80;17.83;;;;;;;0.76;88.68;97874.13;5073855;28;20618;-66
2020/12/11 03:08:08;;;;;;;23.33;16.40;;;;;;;0.83;89.17;97862.31;5073943;28;20234;-65
2020/12/11 03:10:34;;;;;;;25.67;16.65;;;;;;;0.95;88.32;97869.72;5073628;28;20207;-65
2020/12/11 03:13:01;;;;;;;26.33;16.27;;;;;;;1.03;87.31;97869.34;5073617;28;20226;-66
2020/12/11 03:15:28;;;;;;;25.85;15.50;;;;;;;1.01;86.84;97864.09;5072916;28;20185;-66
2020/12/11 03:17:54;;;;;;;24.33;17.02;;;;;;;1.00;87.22;97853.59;5073193;28;20204;-66
2020/12/11 03:20:23;;;;;;;24.20;16.23;;;;;;;0.94;87.41;97843.28;5073724;28;20254;-66
2020/12/11 03:22:51;;;;;;;24.80;15.38;;;;;;;1.00;87.99;97829.75;5073268;28;20183;-65
2020/12/11 03:25:18;;;;;;;30.15;17.20;;;;;;;0.99;87.61;97834.16;5073613;28;20290;-66
2020/12/11 03:27:44;;;;;;;20.75;15.50;;;;;;;0.93;88.19;97841.56;5072979;28;20207;-66
2020/12/11 03:30:12;;;;;;;28.40;17.08;;;;;;;1.38;87.03;97848.22;5073491;28;20682;-66
2020/12/11 03:32:38;;;;;;;21.75;15.10;;;;;;;1.58;85.14;97847.25;5073608;28;20602;-66
2020/12/11 03:35:05;;;;;;;21.70;15.48;;;;;;;1.47;85.73;97842.50;5073501;28;20650;-66
2020/12/11 03:37:32;;;;;;;22.30;15.02;;;;;;;1.44;85.64;97848.78;5073157;28;20303;-65
2020/12/11 03:39:58;;;;;;;21.05;15.65;;;;;;;1.54;85.60;97838.59;5073378;28;20227;-65
2020/12/11 03:42:24;;;;;;;22.80;15.93;;;;;;;1.71;85.13;97839.53;5073321;28;20718;-66
2020/12/11 03:44:51;;;;;;;25.63;15.95;;;;;;;1.84;84.58;97841.50;5072651;28;20189;-66
2020/12/11 03:47:18;;;;;;;25.52;15.98;;;;;;;1.80;84.01;97834.63;5074318;28;20614;-65
2020/12/11 03:49:44;;;;;;;21.55;15.25;;;;;;;1.74;84.33;97824.34;5072773;28;20209;-66
2020/12/11 03:52:11;;;;;;;20.60;14.63;;;;;;;1.69;84.12;97821.03;5072939;28;20231;-66
2020/12/11 03:54:37;;;;;;;20.88;15.10;;;;;;;1.57;84.99;97817.22;5072381;28;20287;-65
2020/12/11 03:57:03;;;;;;;25.88;17.05;;;;;;;1.54;85.17;97812.06;5073000;28;20324;-65
2020/12/11 03:59:30;;;;;;;21.00;14.97;;;;;;;1.46;86.10;97803.63;5050191;28;658062;-67
2020/12/11 04:01:56;;;;;;;21.77;16.38;;;;;;;1.42;86.53;97799.41;5073781;28;20225;-66
2020/12/11 04:04:23;;;;;;;21.92;16.30;;;;;;;1.45;86.21;97788.66;5073679;28;20211;-65
2020/12/11 04:06:50;;;;;;;24.00;15.30;;;;;;;1.50;85.59;97791.09;5073716;28;20205;-65
2020/12/11 04:09:16;;;;;;;28.65;17.55;;;;;;;1.54;86.40;97782.03;5073535;28;20240;-65
2020/12/11 04:11:42;;;;;;;27.85;16.92;;;;;;;1.69;85.85;97791.84;5073275;28;20220;-65
2020/12/11 04:14:08;;;;;;;20.55;15.73;;;;;;;2.05;83.29;97772.31;5073672;28;20239;-65
2020/12/11 04:16:34;;;;;;;18.45;14.18;;;;;;;1.61;84.77;97778.16;5073273;28;20232;-66
2020/12/11 04:19:02;;;;;;;21.52;14.55;;;;;;;1.61;85.67;97771.03;5073617;28;20541;-65
2020/12/11 04:21:30;;;;;;;23.80;14.85;;;;;;;1.69;85.21;97775.09;5073625;28;20615;-64
2020/12/11 04:23:56;;;;;;;19.63;14.23;;;;;;;1.70;84.55;97764.41;5073381;28;20189;-64
2020/12/11 04:26:22;;;;;;;19.33;14.27;;;;;;;1.70;85.22;97759.09;5073228;28;20500;-66
2020/12/11 04:28:48;;;;;;;18.23;13.15;;;;;;;1.94;84.21;97761.41;5072255;28;20266;-65
2020/12/11 04:31:18;;;;;;;22.83;15.18;;;;;;;2.00;83.57;97753.13;5072835;28;20271;-65
2020/12/11 04:33:44;;;;;;;20.48;13.00;;;;;;;2.09;83.11;97757.94;5073332;28;20649;-66
2020/12/11 04:36:16;;;;;;;21.30;14.10;;;;;;;2.32;82.19;97755.84;5072803;28;20208;-65
2020/12/11 04:38:43;;;;;;;17.70;13.00;;;;;;;2.44;81.83;97747.22;5073118;28;20189;-65
2020/12/11 04:41:12;;;;;;;18.17;12.45;;;;;;;2.45;82.16;97741.81;5072741;28;20216;-65
2020/12/11 04:43:40;;;;;;;20.15;13.68;;;;;;;2.41;82.33;97748.22;5073278;28;20208;-65
2020/12/11 04:46:07;;;;;;;19.17;13.45;;;;;;;2.58;82.23;97747.31;5072724;28;20557;-65
2020/12/11 04:48:33;;;;;;;21.67;13.35;;;;;;;2.43;82.73;97742.84;5072726;28;20291;-65
2020/12/11 04:51:01;;;;;;;21.63;13.82;;;;;;;2.53;82.40;97736.06;5072401;28;20205;-65
2020/12/11 04:53:33;;;;;;;23.23;15.10;;;;;;;2.49;82.25;97738.06;5072596;28;20246;-65
2020/12/11 04:56:01;;;;;;;22.25;16.95;;;;;;;2.54;82.54;97727.19;5072911;28;20288;-65
2020/12/11 04:58:30;;;;;;;22.08;15.38;;;;;;;2.44;82.80;97726.84;5072520;28;20227;-64
2020/12/11 05:01:01;;;;;;;20.25;14.07;;;;;;;2.47;83.24;97718.69;5072608;28;20666;-65
2020/12/11 05:03:30;;;;;;;16.58;13.90;;;;;;;2.48;84.11;97714.22;5072424;28;20188;-64
2020/12/11 05:05:56;;;;;;;18.02;13.63;;;;;;;2.49;85.16;97702.69;5072643;28;20189;-66
2020/12/11 05:08:23;;;;;;;17.23;12.52;;;;;;;2.38;86.14;97691.78;5072282;28;20196;-65
2020/12/11 05:10:50;;;;;;;18.77;13.48;;;;;;;2.37;86.62;97684.75;5072343;28;20676;-65
2020/12/11 05:13:21;;;;;;;17.20;12.95;;;;;;;2.33;87.09;97673.44;5072438;28;20674;-65
2020/12/11 05:16:08;;;;;;;17.02;14.32;;;;;;;2.43;87.78;97669.31;5072390;28;20195;-65
2020/12/11 05:18:35;;;;;;;19.23;13.65;;;;;;;2.38;87.60;97659.91;5092127;28;20199;-65
2020/12/11 05:21:19;;;;;;;17.90;12.95;;;;;;;2.48;88.27;97655.78;5092789;28;20265;-64
2020/12/11 05:23:59;;;;;;;17.60;13.07;;;;;;;2.57;88.88;97662.38;5092098;28;20196;-65
2020/12/11 05:26:26;;;;;;;27.05;15.80;;;;;;;2.78;89.54;97660.28;5091732;28;20195;-65
2020/12/11 05:28:53;;;;;;;19.10;12.93;;;;;;;2.77;88.78;97662.09;5092128;28;20204;-65
2020/12/11 05:31:19;;;;;;;17.08;12.32;;;;;;;2.89;88.41;97649.91;5092460;28;20261;-65
2020/12/11 05:34:08;;;;;;;15.02;11.20;;;;;;;2.88;87.83;97648.19;5090711;28;20208;-65
2020/12/11 05:36:49;;;;;;;17.63;11.57;;;;;;;2.96;87.72;97639.75;5072216;28;20578;-65
2020/12/11 05:39:31;;;;;;;17.25;11.48;;;;;;;3.02;87.08;97639.41;5071706;28;20288;-65
2020/12/11 05:41:58;;;;;;;17.10;11.88;;;;;;;3.05;86.90;97634.78;5072259;28;20278;-66
2020/12/11 05:44:32;;;;;;;12.63;9.95;;;;;;;3.35;85.19;97625.94;5072080;28;20250;-65
2020/12/11 05:46:59;;;;;;;24.00;21.58;;;;;;;3.30;85.03;97626.19;5079276;28;20265;-65
2020/12/11 05:49:28;;;;;;;18.23;11.70;;;;;;;3.31;84.53;97619.06;5071565;28;20224;-66
2020/12/11 05:51:57;;;;;;;15.02;10.85;;;;;;;3.28;84.44;97621.94;5071271;28;20219;-66
2020/12/11 05:54:24;;;;;;;14.02;10.13;;;;;;;3.29;85.12;97612.97;5071306;28;20196;-66
2020/12/11 05:56:51;;;;;;;14.90;10.05;;;;;;;3.27;84.23;97606.91;5071348;28;20190;-65
2020/12/11 05:59:20;;;;;;;19.08;13.35;;;;;;;3.36;84.04;97601.03;5071113;28;20320;-64
2020/12/11 06:01:49;;;;;;;15.93;12.05;;;;;;;3.43;84.58;97606.81;5071189;28;20185;-66
2020/12/11 06:04:17;;;;;;;16.00;11.13;;;;;;;3.40;83.99;97599.91;5071562;28;20657;-66
2020/12/11 06:06:45;;;;;;;16.25;11.25;;;;;;;3.46;84.49;97602.19;5071778;28;20190;-66
2020/12/11 06:09:13;;;;;;;18.17;12.73;;;;;;;3.57;83.63;97606.81;5071273;28;20262;-66
2020/12/11 06:11:46;;;;;;;14.73;11.15;;;;;;;3.47;83.00;97598.56;5082210;28;20212;-65
2020/12/11 06:14:23;;;;;;;16.65;11.20;;;;;;;3.35;83.38;97594.00;5091782;28;20190;-65
2020/12/11 06:16:53;;;;;;;14.20;10.60;;;;;;;3.45;83.63;97600.47;5084090;28;20279;-66
2020/12/11 06:19:19;;;;;;;16.45;12.38;;;;;;;3.52;83.60;97584.97;5081988;28;20621;-66
2020/12/11 06:21:46;;;;;;;22.05;13.70;;;;;;;3.65;83.19;97590.41;5082296;28;20270;-66
2020/12/11 06:24:42;;;;;;;16.25;12.23;;;;;;;3.51;83.92;97591.25;5070542;28;20210;-65
2020/12/11 06:27:08;;;;;;;17.77;11.93;;;;;;;3.41;84.36;97587.44;5048292;28;20277;-66
2020/12/11 06:29:39;;;;;;;18.73;13.60;;;;;;;3.44;83.98;97580.13;5048074;28;20277;-66
2020/12/11 06:32:07;;;;;;;16.15;10.90;;;;;;;3.29;84.98;97581.06;5048728;28;20263;-67
2020/12/11 06:34:33;;;;;;;14.38;11.35;;;;;;;3.25;86.61;97572.41;5048592;28;20231;-65
2020/12/11 06:37:00;;;;;;;17.40;12.20;;;;;;;3.28;87.29;97571.41;5048524;28;20304;-66
2020/12/11 06:39:43;;;;;;;18.05;12.80;;;;;;;3.33;87.46;97575.47;5048698;28;20321;-66
2020/12/11 06:42:11;;;;;;;18.40;13.07;;;;;;;3.50;86.97;97565.59;5048556;28;20283;-65
2020/12/11 06:44:37;;;;;;;19.52;12.55;;;;;;;3.44;86.92;97566.84;5048501;28;20722;-66
2020/12/11 06:47:06;;;;;;;16.20;11.85;;;;;;;3.54;85.77;97564.44;5048575;28;20206;-67
2020/12/11 06:49:33;;;;;;;20.20;13.32;;;;;;;3.47;86.62;97571.09;5048603;28;20576;-65
2020/12/11 06:52:14;;;;;;;16.73;11.35;;;;;;;3.22;87.91;97569.09;5050568;28;20287;-65
2020/12/11 06:54:50;;;;;;;16.63;12.10;;;;;;;3.20;89.13;97563.84;5051688;28;20201;-66
2020/12/11 06:57:34;;;;;;;20.67;12.63;;;;;;;3.15;90.75;97576.59;5052340;28;20214;-66
2020/12/11 07:00:22;;;;;;;18.55;12.30;;;;;;;3.06;91.48;97571.81;5031992;28;20233;-66
2020/12/11 07:03:22;;;;;;;18.48;13.13;;;;;;;3.19;92.00;97563.94;5032421;28;20688;-66
2020/12/11 07:06:10;;;;;;;19.48;13.07;;;;;;;3.18;92.34;97557.78;5054985;28;20226;-66
2020/12/11 07:08:37;;;;;;;23.02;15.07;;;;;;;3.05;92.25;97548.81;5054674;28;20194;-66
2020/12/11 07:11:12;;;;;;;18.70;13.27;;;;;;;3.04;92.48;97553.28;5081796;28;20685;-66
2020/12/11 07:13:52;;;;;;;18.08;13.15;;;;;;;3.11;93.43;97549.31;5094540;28;20274;-65
2020/12/11 07:16:19;;;;;;;27.23;13.35;;;;;;;3.18;93.55;97554.28;5059443;28;20199;-66
2020/12/11 07:18:46;;;;;;;20.38;13.43;;;;;;;3.28;93.64;97560.75;5073733;28;20200;-66
2020/12/11 07:21:13;;;;;;;20.33;13.52;;;;;;;3.22;92.75;97548.66;5074066;28;20204;-66
2020/12/11 07:23:41;;;;;;;19.00;13.52;;;;;;;3.28;93.04;97553.63;5075317;28;20539;-66
2020/12/11 07:26:08;;;;;;;24.92;14.25;;;;;;;3.31;93.25;97549.91;5090157;28;20209;-66
2020/12/11 07:28:34;;;;;;;20.27;14.30;;;;;;;3.23;92.34;97541.53;5078653;28;20204;-67
2020/12/11 07:31:01;;;;;;;21.98;14.02;;;;;;;3.18;93.21;97541.81;5073432;28;20185;-66
2020/12/11 07:33:34;;;;;;;21.85;15.68;;;;;;;3.34;93.73;97544.41;5079135;28;20224;-66
2020/12/11 07:36:03;;;;;;;18.23;13.52;;;;;;;3.26;93.79;97541.38;5087066;28;20197;-66
2020/12/11 07:38:31;;;;;;;21.48;13.85;;;;;;;3.37;92.62;97535.38;5092395;28;20216;-66
2020/12/11 07:41:00;;;;;;;22.60;14.15;;;;;;;3.26;92.95;97536.06;5079036;28;20204;-66
2020/12/11 07:43:26;;;;;;;17.05;13.18;;;;;;;3.31;93.15;97536.63;5083183;28;20247;-65
2020/12/11 07:45:52;;;;;;;21.92;12.95;;;;;;;3.42;92.65;97536.81;5094261;28;20271;-66
2020/12/11 07:48:19;;;;;;;23.30;14.80;;;;;;;3.36;92.91;97531.88;5078883;28;20201;-66
2020/12/11 07:50:46;;;;;;;21.65;13.23;;;;;;;3.34;92.78;97531.09;5073806;28;20200;-66
2020/12/11 07:53:13;;;;;;;21.67;12.57;;;;;;;3.34;92.06;97525.78;5073431;28;20254;-66
2020/12/11 07:55:40;;;;;;;19.65;13.43;;;;;;;3.40;91.50;97521.91;5073309;28;20200;-66
2020/12/11 07:58:07;;;;;;;19.50;12.70;;;;;;;3.43;91.36;97517.22;5073448;28;20204;-64
2020/12/11 08:00:37;;;;;;;23.10;15.23;;;;;;;3.54;90.44;97514.75;5073253;28;20663;-66
2020/12/11 08:03:08;;;;;;;20.48;13.85;;;;;;;3.37;91.23;97512.31;5073218;28;20204;-64
2020/12/11 08:05:38;;;;;;;16.88;13.43;;;;;;;3.32;92.80;97522.34;5072642;28;20233;-65
2020/12/11 08:08:06;;;;;;;23.13;14.90;;;;;;;3.35;92.42;97514.22;5073927;28;20644;-66
2020/12/11 08:10:42;;;;;;;23.30;15.30;;;;;;;3.42;91.85;97512.03;5073379;28;20286;-66
2020/12/11 08:13:14;;;;;;;21.75;15.13;;;;;;;3.45;92.28;97517.97;5073825;28;20228;-66
2020/12/11 08:15:41;;;;;;;22.40;15.68;;;;;;;3.36;92.38;97507.06;5072986;28;20287;-66
2020/12/11 08:18:20;;;;;;;22.48;14.35;;;;;;;3.34;92.56;97512.47;5073227;28;20207;-65
2020/12/11 08:20:49;;;;;;;23.15;14.68;;;;;;;3.16;93.02;97506.50;5073161;28;20192;-66
2020/12/11 08:23:20;;;;;;;24.67;15.38;;;;;;;3.25;93.33;97505.06;5073912;28;20200;-65
2020/12/11 08:25:47;;;;;;;28.20;16.05;;;;;;;3.29;93.92;97503.94;5084034;28;20542;-65
2020/12/11 08:28:18;;;;;;;23.80;13.90;;;;;;;3.37;92.66;97507.00;5072676;28;20260;-65
2020/12/11 08:30:46;;;;;;;23.52;15.20;;;;;;;3.31;91.84;97515.34;5072793;28;20209;-66
2020/12/11 08:33:12;;;;;;;22.33;15.05;;;;;;;3.31;92.84;97507.38;5072670;28;20230;-65
2020/12/11 08:35:39;;;;;;;25.33;14.45;;;;;;;3.32;91.97;97507.28;5071649;28;20205;-65
2020/12/11 08:38:10;;;;;;;23.45;14.07;;;;;;;3.31;92.19;97502.88;5072728;28;20224;-65
2020/12/11 08:40:46;;;;;;;21.63;15.10;;;;;;;3.34;92.16;97508.00;5064281;28;20204;-65
2020/12/11 08:43:20;;;;;;;20.30;13.77;;;;;;;3.44;93.05;97507.47;5069268;28;20185;-65
2020/12/11 08:45:55;;;;;;;22.95;14.90;;;;;;;3.41;92.00;97504.97;5072783;28;20966;-66
2020/12/11 08:48:33;;;;;;;22.75;15.10;;;;;;;3.42;92.21;97494.25;5072230;28;20215;-66
2020/12/11 08:51:03;;;;;;;22.85;15.75;;;;;;;3.63;91.97;97499.16;5073825;28;20630;-66
2020/12/11 08:53:34;;;;;;;22.65;14.90;;;;;;;3.82;91.57;97501.50;5072784;28;20205;-66
2020/12/11 08:56:06;;;;;;;23.52;15.43;;;;;;;3.84;90.63;97500.44;5072437;28;20303;-66
2020/12/11 08:58:33;;;;;;;22.70;14.65;;;;;;;3.91;90.52;97496.44;5072038;28;20258;-67
2020/12/11 09:01:00;;;;;;;24.83;15.55;;;;;;;3.92;90.19;97498.16;5072386;28;20211;-66
2020/12/11 09:03:27;;;;;;;24.67;15.23;;;;;;;3.99;89.84;97498.59;5086578;28;20181;-65
2020/12/11 09:05:56;;;;;;;20.30;13.98;;;;;;;4.03;89.93;97488.63;5076882;28;20643;-66
2020/12/11 09:08:22;;;;;;;24.33;14.68;;;;;;;4.06;90.01;97481.28;5091290;28;20630;-66
2020/12/11 09:10:48;;;;;;;21.95;15.48;;;;;;;4.05;90.95;97478.69;5071949;28;20255;-66
2020/12/11 09:13:15;;;;;;;26.80;22.15;;;;;;;4.08;91.54;97481.19;5086854;28;20230;-66
2020/12/11 09:15:42;;;;;;;19.70;12.98;;;;;;;4.25;88.96;97469.41;5092057;28;20197;-66
2020/12/11 09:18:09;;;;;;;20.75;13.85;;;;;;;4.21;89.32;97476.75;5092657;28;20309;-65
2020/12/11 09:20:36;;;;;;;18.65;13.90;;;;;;;4.15;89.53;97477.16;5091537;28;20221;-66
2020/12/11 09:23:02;;;;;;;20.63;14.65;;;;;;;4.22;89.85;97478.44;5092223;28;20243;-66
2020/12/11 09:25:29;;;;;;;20.75;14.10;;;;;;;4.26;89.81;97479.97;5092643;28;20201;-66
2020/12/11 09:27:55;;;;;;;20.38;13.52;;;;;;;4.21;90.43;97476.75;5092393;28;20543;-66
2020/12/11 09:30:26;;;;;;;24.02;17.35;;;;;;;4.47;89.61;97476.81;5083588;28;20282;-66
2020/12/11 09:33:01;;;;;;;20.08;13.75;;;;;;;4.31;88.69;97472.50;5072495;28;20686;-65
2020/12/11 09:35:28;;;;;;;20.15;13.35;;;;;;;4.35;89.02;97467.84;5072387;28;20186;-66
2020/12/11 09:37:55;;;;;;;25.63;16.10;;;;;;;4.42;89.44;97468.28;5072444;28;20251;-66
2020/12/11 09:40:27;;;;;;;19.67;13.45;;;;;;;4.50;89.22;97455.28;5072456;28;20300;-65
2020/12/11 09:45:36;;;;;;;22.77;14.68;;;;;;;4.58;89.11;97452.97;5048796;28;20197;-65
2020/12/11 09:50:59;;;;;;;18.35;12.70;;;;;;;5.05;88.09;97440.84;5072287;28;20183;-65
2020/12/11 09:53:58;;;;;;;20.77;12.85;;;;;;;4.87;87.71;97434.13;5071816;28;20279;-66
2020/12/11 09:56:26;;;;;;;20.08;12.70;;;;;;;4.77;87.93;97431.22;5088787;28;20198;-65
2020/12/11 09:58:55;;;;;;;18.77;11.80;;;;;;;4.74;87.14;97410.97;5091870;28;20226;-66
2020/12/11 10:01:26;;;;;;;17.80;12.00;;;;;;;4.87;87.16;97415.47;5092279;28;20676;-65
2020/12/11 10:03:56;;;;;;;18.15;11.15;;;;;;;5.05;86.62;97413.31;5079528;28;20191;-65
2020/12/11 10:06:23;;;;;;;18.02;11.80;;;;;;;5.04;85.84;97412.44;5071740;28;20238;-65
2020/12/11 10:08:50;;;;;;;16.45;12.20;;;;;;;4.99;85.96;97398.59;5072715;28;20227;-65
2020/12/11 10:11:18;;;;;;;19.42;13.57;;;;;;;4.98;85.96;97407.56;5074115;28;20245;-66
2020/12/11 10:13:45;;;;;;;18.67;12.35;;;;;;;5.05;85.62;97400.84;5071484;28;20658;-65
2020/12/11 10:16:16;;;;;;;17.05;12.38;;;;;;;4.94;85.63;97398.06;5071191;28;20722;-66
2020/12/11 10:18:43;;;;;;;17.33;12.40;;;;;;;4.79;86.05;97389.31;5071385;28;20480;-66
2020/12/11 10:21:11;;;;;;;15.20;10.77;;;;;;;4.53;87.48;97381.31;5071062;28;20238;-67
2020/12/11 10:23:37;;;;;;;18.52;11.70;;;;;;;4.67;88.43;97371.53;5086587;28;20192;-66
2020/12/11 10:26:04;;;;;;;20.38;12.93;;;;;;;4.74;88.89;97378.13;5066017;28;20228;-67
2020/12/11 10:28:31;;;;;;;17.98;12.02;;;;;;;4.89;87.57;97365.56;5055026;28;20202;-66
2020/12/11 10:30:58;;;;;;;18.35;13.45;;;;;;;4.90;87.79;97368.09;5063552;28;20636;-66
2020/12/11 10:33:25;;;;;;;14.38;11.73;;;;;;;4.99;86.78;97364.75;5074209;28;20301;-67
2020/12/11 10:35:51;;;;;;;13.02;10.65;;;;;;;5.14;86.34;97360.16;5074862;28;20638;-66
2020/12/11 10:38:19;;;;;;;18.73;11.60;;;;;;;5.17;86.32;97359.94;5074727;28;20203;-66
2020/12/11 10:40:46;;;;;;;22.13;13.18;;;;;;;5.10;87.85;97348.00;5074722;28;20200;-66
2020/12/11 10:43:12;;;;;;;17.83;12.32;;;;;;;5.18;86.86;97342.97;5074381;28;20210;-66
2020/12/11 10:45:39;;;;;;;16.60;12.10;;;;;;;5.39;85.83;97340.56;5069952;28;20610;-67
2020/12/11 10:48:09;;;;;;;15.57;11.57;;;;;;;5.58;85.12;97337.38;5074440;28;20206;-66
2020/12/11 10:50:35;;;;;;;17.60;12.30;;;;;;;5.72;84.35;97328.38;5074425;28;20275;-65
2020/12/11 10:53:02;;;;;;;15.77;10.73;;;;;;;5.80;82.48;97325.13;5074186;28;20241;-66
2020/12/11 10:55:29;;;;;;;16.98;11.23;;;;;;;5.74;82.89;97314.88;5074442;28;20673;-66
2020/12/11 10:57:56;;;;;;;14.48;10.60;;;;;;;5.57;82.52;97317.00;5074385;28;20208;-66
2020/12/11 11:00:22;;;;;;;17.17;11.82;;;;;;;5.49;83.03;97318.53;5086385;28;20250;-66
2020/12/11 11:02:49;;;;;;;17.15;11.52;;;;;;;5.44;84.11;97318.88;5085287;28;20246;-66
2020/12/11 11:05:15;;;;;;;13.90;10.38;;;;;;;5.36;82.72;97313.25;5074296;28;20211;-66
2020/12/11 11:07:42;;;;;;;20.48;11.30;;;;;;;5.33;84.08;97311.66;5074009;28;20702;-65
2020/12/11 11:10:21;;;;;;;14.48;11.05;;;;;;;5.28;83.85;97315.63;5074427;28;20245;-67
2020/12/11 11:12:52;;;;;;;15.75;11.63;;;;;;;5.36;84.74;97308.78;5053906;28;20214;-66
2020/12/11 11:15:37;;;;;;;21.92;13.30;;;;;;;5.38;84.09;97313.97;5053835;28;20189;-66
2020/12/11 11:18:20;;;;;;;16.50;10.80;;;;;;;5.42;83.39;97299.44;5065238;28;20556;-66
2020/12/11 11:21:19;;;;;;;14.48;10.75;;;;;;;5.44;83.07;97292.19;5073764;28;20189;-67
2020/12/11 11:29:14;;;;;;;15.52;10.48;;;;;;;5.46;83.22;97284.06;5066735;28;20195;-66
2020/12/11 11:31:45;;;;;;;15.55;11.00;;;;;;;5.48;82.89;97274.16;5073625;28;20297;-66
2020/12/11 11:34:12;;;;;;;15.85;11.25;;;;;;;5.51;83.09;97265.91;5074271;28;20191;-67
2020/12/11 11:36:38;;;;;;;16.33;11.00;;;;;;;5.42;82.78;97256.75;5073683;28;20544;-66
2020/12/11 11:39:05;;;;;;;13.05;10.10;;;;;;;5.60;83.30;97260.72;5073449;28;20199;-66
2020/12/11 11:41:47;;;;;;;13.38;11.27;;;;;;;5.76;83.02;97262.22;5073686;28;20203;-66
2020/12/11 11:44:38;;;;;;;14.65;11.88;;;;;;;5.78;82.80;97249.63;5073452;28;20613;-65